sensor_id;sensor_type;location;lat;lon;timestamp;P1;durP1;ratioP1;P2;durP2;ratioP2
74777;SDS011;63298;53.164;8.610;2023-12-20T03:17:09;12.18;;;1.30;;
74777;SDS011;63298;53.164;8.610;2023-12-20T03:19:34;7.55;;;1.50;;
74777;SDS011;63298;53.164;8.610;2023-12-20T03:22:00;6.45;;;0.98;;
74777;SDS011;63298;53.164;8.610;2023-12-20T03:24:25;13.00;;;1.77;;
74777;SDS011;63298;53.164;8.610;2023-12-20T03:26:50;9.07;;;1.00;;
74777;SDS011;63298;53.164;8.610;2023-12-20T03:29:15;7.13;;;1.07;;
74777;SDS011;63298;53.164;8.610;2023-12-20T03:31:43;11.90;;;1.88;;
74777;SDS011;63298;53.164;8.610;2023-12-20T03:34:11;7.60;;;1.00;;
74777;SDS011;63298;53.164;8.610;2023-12-20T03:36:37;9.98;;;1.20;;
74777;SDS011;63298;53.164;8.610;2023-12-20T03:39:02;5.57;;;1.10;;
74777;SDS011;63298;53.164;8.610;2023-12-20T03:41:28;15.77;;;1.98;;
74777;SDS011;63298;53.164;8.610;2023-12-20T03:43:53;5.95;;;1.08;;
74777;SDS011;63298;53.164;8.610;2023-12-20T03:46:21;19.88;;;2.10;;
74777;SDS011;63298;53.164;8.610;2023-12-20T03:48:49;6.28;;;1.10;;
74777;SDS011;63298;53.164;8.610;2023-12-20T03:51:15;9.70;;;1.38;;
74777;SDS011;63298;53.164;8.610;2023-12-20T03:53:40;7.97;;;1.75;;
74777;SDS011;63298;53.164;8.610;2023-12-20T03:56:05;12.15;;;1.35;;
74777;SDS011;63298;53.164;8.610;2023-12-20T03:58:31;7.82;;;1.40;;
74777;SDS011;63298;53.164;8.610;2023-12-20T04:00:56;7.15;;;1.08;;
74777;SDS011;63298;53.164;8.610;2023-12-20T04:03:22;10.48;;;1.42;;
74777;SDS011;63298;53.164;8.610;2023-12-20T04:05:47;15.48;;;1.80;;
74777;SDS011;63298;53.164;8.610;2023-12-20T04:08:12;7.03;;;1.30;;
74777;SDS011;63298;53.164;8.610;2023-12-20T04:10:37;10.82;;;1.02;;
74777;SDS011;63298;53.164;8.610;2023-12-20T04:13:03;12.45;;;1.35;;
74777;SDS011;63298;53.164;8.610;2023-12-20T04:15:34;13.95;;;1.48;;
74777;SDS011;63298;53.164;8.610;2023-12-20T04:18:02;8.60;;;1.38;;
74777;SDS011;63298;53.164;8.610;2023-12-20T04:20:32;8.63;;;1.52;;
74777;SDS011;63298;53.164;8.610;2023-12-20T04:22:58;10.60;;;1.30;;
74777;SDS011;63298;53.164;8.610;2023-12-20T04:25:24;7.15;;;1.23;;
74777;SDS011;63298;53.164;8.610;2023-12-20T04:27:50;6.55;;;1.20;;
74777;SDS011;63298;53.164;8.610;2023-12-20T04:30:15;10.18;;;1.33;;
74777;SDS011;63298;53.164;8.610;2023-12-20T04:32:41;13.77;;;1.30;;
74777;SDS011;63298;53.164;8.610;2023-12-20T04:35:06;8.20;;;1.17;;
74777;SDS011;63298;53.164;8.610;2023-12-20T04:37:31;5.57;;;1.25;;
74777;SDS011;63298;53.164;8.610;2023-12-20T04:39:57;8.82;;;1.30;;
74777;SDS011;63298;53.164;8.610;2023-12-20T04:42:22;11.98;;;1.85;;
74777;SDS011;63298;53.164;8.610;2023-12-20T04:44:50;14.88;;;1.58;;
74777;SDS011;63298;53.164;8.610;2023-12-20T04:47:15;14.35;;;1.98;;
74777;SDS011;63298;53.164;8.610;2023-12-20T04:49:40;11.47;;;1.47;;
74777;SDS011;63298;53.164;8.610;2023-12-20T04:52:06;11.05;;;1.92;;
74777;SDS011;63298;53.164;8.610;2023-12-20T04:54:34;8.10;;;1.33;;
74777;SDS011;63298;53.164;8.610;2023-12-20T04:56:59;13.95;;;2.00;;
74777;SDS011;63298;53.164;8.610;2023-12-20T04:59:24;6.30;;;0.95;;
74777;SDS011;63298;53.164;8.610;2023-12-20T05:01:50;14.80;;;1.95;;
74777;SDS011;63298;53.164;8.610;2023-12-20T05:04:15;11.93;;;1.55;;
74777;SDS011;63298;53.164;8.610;2023-12-20T05:06:41;10.70;;;2.25;;
74777;SDS011;63298;53.164;8.610;2023-12-20T05:09:09;16.67;;;1.73;;
74777;SDS011;63298;53.164;8.610;2023-12-20T05:11:40;14.10;;;1.65;;
74777;SDS011;63298;53.164;8.610;2023-12-20T05:14:06;20.55;;;2.20;;
74777;SDS011;63298;53.164;8.610;2023-12-20T05:16:31;18.02;;;2.47;;
74777;SDS011;63298;53.164;8.610;2023-12-20T05:18:56;15.10;;;1.70;;
74777;SDS011;63298;53.164;8.610;2023-12-20T05:21:22;12.75;;;1.77;;
74777;SDS011;63298;53.164;8.610;2023-12-20T05:23:47;11.27;;;1.85;;
74777;SDS011;63298;53.164;8.610;2023-12-20T05:26:15;9.00;;;2.05;;
74777;SDS011;63298;53.164;8.610;2023-12-20T05:28:40;8.02;;;1.52;;
74777;SDS011;63298;53.164;8.610;2023-12-20T05:31:05;21.92;;;3.00;;
74777;SDS011;63298;53.164;8.610;2023-12-20T05:33:34;12.70;;;2.00;;
74777;SDS011;63298;53.164;8.610;2023-12-20T05:36:00;16.80;;;2.50;;
74777;SDS011;63298;53.164;8.610;2023-12-20T05:38:26;16.67;;;2.30;;
74777;SDS011;63298;53.164;8.610;2023-12-20T05:40:51;12.23;;;1.90;;
74777;SDS011;63298;53.164;8.610;2023-12-20T05:43:17;14.98;;;2.00;;
74777;SDS011;63298;53.164;8.610;2023-12-20T05:45:42;10.52;;;1.38;;
74777;SDS011;63298;53.164;8.610;2023-12-20T05:48:07;10.98;;;1.70;;
74777;SDS011;63298;53.164;8.610;2023-12-20T05:50:36;9.98;;;1.42;;
74777;SDS011;63298;53.164;8.610;2023-12-20T05:53:02;17.35;;;2.08;;
74777;SDS011;63298;53.164;8.610;2023-12-20T05:55:27;16.95;;;2.22;;
74777;SDS011;63298;53.164;8.610;2023-12-20T05:57:52;17.92;;;2.53;;
74777;SDS011;63298;53.164;8.610;2023-12-20T06:00:18;10.15;;;1.88;;
74777;SDS011;63298;53.164;8.610;2023-12-20T06:02:43;20.08;;;1.52;;
74777;SDS011;63298;53.164;8.610;2023-12-20T06:05:09;22.88;;;3.67;;
74777;SDS011;63298;53.164;8.610;2023-12-20T06:07:34;13.30;;;2.30;;
74777;SDS011;63298;53.164;8.610;2023-12-20T06:09:59;11.77;;;2.15;;
74777;SDS011;63298;53.164;8.610;2023-12-20T06:12:25;21.50;;;2.72;;
74777;SDS011;63298;53.164;8.610;2023-12-20T06:14:50;21.85;;;2.13;;
74777;SDS011;63298;53.164;8.610;2023-12-20T06:17:16;13.77;;;2.20;;
74777;SDS011;63298;53.164;8.610;2023-12-20T06:19:41;14.30;;;1.98;;
74777;SDS011;63298;53.164;8.610;2023-12-20T06:22:07;10.27;;;2.50;;
74777;SDS011;63298;53.164;8.610;2023-12-20T06:24:32;9.23;;;1.98;;
74777;SDS011;63298;53.164;8.610;2023-12-20T06:26:57;17.08;;;2.38;;
74777;SDS011;63298;53.164;8.610;2023-12-20T06:29:22;12.18;;;2.35;;
74777;SDS011;63298;53.164;8.610;2023-12-20T06:31:48;16.40;;;2.30;;
74777;SDS011;63298;53.164;8.610;2023-12-20T06:34:13;21.40;;;2.97;;
74777;SDS011;63298;53.164;8.610;2023-12-20T06:36:41;13.30;;;2.42;;
74777;SDS011;63298;53.164;8.610;2023-12-20T06:39:07;15.98;;;2.25;;
74777;SDS011;63298;53.164;8.610;2023-12-20T06:41:32;17.03;;;2.80;;
74777;SDS011;63298;53.164;8.610;2023-12-20T06:43:57;18.42;;;2.80;;
74777;SDS011;63298;53.164;8.610;2023-12-20T06:46:23;20.40;;;2.60;;
74777;SDS011;63298;53.164;8.610;2023-12-20T06:48:48;12.05;;;1.95;;
74777;SDS011;63298;53.164;8.610;2023-12-20T06:51:17;17.95;;;2.65;;
74777;SDS011;63298;53.164;8.610;2023-12-20T06:53:42;19.40;;;2.55;;
74777;SDS011;63298;53.164;8.610;2023-12-20T06:56:10;23.05;;;3.40;;
74777;SDS011;63298;53.164;8.610;2023-12-20T06:58:37;20.15;;;3.17;;
74777;SDS011;63298;53.164;8.610;2023-12-20T07:01:03;18.45;;;2.17;;
74777;SDS011;63298;53.164;8.610;2023-12-20T07:03:28;17.70;;;2.65;;
74777;SDS011;63298;53.164;8.610;2023-12-20T07:05:53;17.48;;;2.67;;
74777;SDS011;63298;53.164;8.610;2023-12-20T07:08:19;14.63;;;2.30;;
74777;SDS011;63298;53.164;8.610;2023-12-20T07:10:44;17.80;;;2.38;;
74777;SDS011;63298;53.164;8.610;2023-12-20T07:13:09;17.65;;;2.67;;
74777;SDS011;63298;53.164;8.610;2023-12-20T07:15:35;23.48;;;2.65;;
74777;SDS011;63298;53.164;8.610;2023-12-20T07:18:00;13.82;;;2.28;;
74777;SDS011;63298;53.164;8.610;2023-12-20T07:20:25;10.20;;;2.00;;
74777;SDS011;63298;53.164;8.610;2023-12-20T07:22:51;20.55;;;2.75;;
74777;SDS011;63298;53.164;8.610;2023-12-20T07:25:16;18.45;;;2.58;;
74777;SDS011;63298;53.164;8.610;2023-12-20T07:27:44;17.05;;;2.65;;
74777;SDS011;63298;53.164;8.610;2023-12-20T07:30:10;15.20;;;2.53;;
74777;SDS011;63298;53.164;8.610;2023-12-20T07:32:38;15.75;;;1.95;;
74777;SDS011;63298;53.164;8.610;2023-12-20T07:35:11;20.65;;;2.47;;
74777;SDS011;63298;53.164;8.610;2023-12-20T07:37:36;20.55;;;2.35;;
74777;SDS011;63298;53.164;8.610;2023-12-20T07:40:02;24.23;;;2.72;;
74777;SDS011;63298;53.164;8.610;2023-12-20T07:42:30;23.83;;;2.60;;
74777;SDS011;63298;53.164;8.610;2023-12-20T07:44:58;19.03;;;2.53;;
74777;SDS011;63298;53.164;8.610;2023-12-20T07:47:24;17.48;;;1.90;;
74777;SDS011;63298;53.164;8.610;2023-12-20T07:50:00;22.50;;;3.22;;
74777;SDS011;63298;53.164;8.610;2023-12-20T07:52:25;20.10;;;2.20;;
74777;SDS011;63298;53.164;8.610;2023-12-20T07:54:53;26.15;;;3.10;;
74777;SDS011;63298;53.164;8.610;2023-12-20T07:57:21;12.75;;;2.00;;
74777;SDS011;63298;53.164;8.610;2023-12-20T07:59:46;15.63;;;2.72;;
74777;SDS011;63298;53.164;8.610;2023-12-20T08:02:19;14.93;;;2.42;;
74777;SDS011;63298;53.164;8.610;2023-12-20T08:04:44;18.55;;;2.63;;
74777;SDS011;63298;53.164;8.610;2023-12-20T08:07:09;14.95;;;1.90;;
74777;SDS011;63298;53.164;8.610;2023-12-20T08:09:35;13.55;;;2.28;;
74777;SDS011;63298;53.164;8.610;2023-12-20T08:12:03;13.07;;;2.35;;
74777;SDS011;63298;53.164;8.610;2023-12-20T08:14:29;18.45;;;2.78;;
74777;SDS011;63298;53.164;8.610;2023-12-20T08:16:54;14.77;;;3.35;;
74777;SDS011;63298;53.164;8.610;2023-12-20T08:19:19;15.45;;;2.83;;
74777;SDS011;63298;53.164;8.610;2023-12-20T08:21:45;18.35;;;2.83;;
74777;SDS011;63298;53.164;8.610;2023-12-20T08:24:10;15.30;;;2.40;;
74777;SDS011;63298;53.164;8.610;2023-12-20T08:26:36;16.08;;;2.30;;
74777;SDS011;63298;53.164;8.610;2023-12-20T08:29:03;13.73;;;2.45;;
74777;SDS011;63298;53.164;8.610;2023-12-20T08:31:34;15.10;;;1.90;;
74777;SDS011;63298;53.164;8.610;2023-12-20T08:34:04;15.80;;;2.45;;
74777;SDS011;63298;53.164;8.610;2023-12-20T08:36:33;13.43;;;1.65;;
74777;SDS011;63298;53.164;8.610;2023-12-20T08:38:58;15.02;;;2.33;;
74777;SDS011;63298;53.164;8.610;2023-12-20T08:41:26;22.90;;;3.38;;
74777;SDS011;63298;53.164;8.610;2023-12-20T08:43:52;16.10;;;2.55;;
74777;SDS011;63298;53.164;8.610;2023-12-20T08:46:17;13.95;;;2.28;;
74777;SDS011;63298;53.164;8.610;2023-12-20T08:48:42;12.00;;;1.90;;
74777;SDS011;63298;53.164;8.610;2023-12-20T08:51:10;15.10;;;3.10;;
74777;SDS011;63298;53.164;8.610;2023-12-20T08:53:38;13.23;;;1.90;;
74777;SDS011;63298;53.164;8.610;2023-12-20T08:56:04;17.20;;;2.08;;
74777;SDS011;63298;53.164;8.610;2023-12-20T08:58:31;13.10;;;2.00;;
74777;SDS011;63298;53.164;8.610;2023-12-20T09:00:57;16.77;;;2.38;;
74777;SDS011;63298;53.164;8.610;2023-12-20T09:03:25;17.65;;;2.60;;
74777;SDS011;63298;53.164;8.610;2023-12-20T09:05:50;19.30;;;2.33;;
74777;SDS011;63298;53.164;8.610;2023-12-20T09:08:15;10.90;;;1.65;;
74777;SDS011;63298;53.164;8.610;2023-12-20T09:10:41;14.43;;;2.85;;
74777;SDS011;63298;53.164;8.610;2023-12-20T09:13:06;12.25;;;1.65;;
74777;SDS011;63298;53.164;8.610;2023-12-20T09:15:31;9.35;;;2.28;;
74777;SDS011;63298;53.164;8.610;2023-12-20T09:17:59;8.98;;;1.85;;
74777;SDS011;63298;53.164;8.610;2023-12-20T09:20:25;14.23;;;2.30;;
74777;SDS011;63298;53.164;8.610;2023-12-20T09:22:50;14.82;;;2.63;;
74777;SDS011;63298;53.164;8.610;2023-12-20T09:25:16;9.07;;;1.75;;
74777;SDS011;63298;53.164;8.610;2023-12-20T09:27:44;17.83;;;2.58;;
74777;SDS011;63298;53.164;8.610;2023-12-20T09:30:12;18.35;;;2.38;;
74777;SDS011;63298;53.164;8.610;2023-12-20T09:32:41;10.70;;;2.28;;
74777;SDS011;63298;53.164;8.610;2023-12-20T09:35:06;5.53;;;1.60;;
74777;SDS011;63298;53.164;8.610;2023-12-20T09:37:35;5.78;;;1.23;;
74777;SDS011;63298;53.164;8.610;2023-12-20T09:40:00;4.63;;;1.00;;
74777;SDS011;63298;53.164;8.610;2023-12-20T09:45:26;4.25;;;0.40;;
74777;SDS011;63298;53.164;8.610;2023-12-20T09:47:52;3.20;;;0.52;;
74777;SDS011;63298;53.164;8.610;2023-12-20T09:50:21;4.88;;;0.68;;
74777;SDS011;63298;53.164;8.610;2023-12-20T09:55:17;3.38;;;1.00;;
74777;SDS011;63298;53.164;8.610;2023-12-20T09:57:43;3.03;;;0.52;;
74777;SDS011;63298;53.164;8.610;2023-12-20T10:00:09;2.08;;;0.60;;
74777;SDS011;63298;53.164;8.610;2023-12-20T10:02:35;7.07;;;0.77;;
74777;SDS011;63298;53.164;8.610;2023-12-20T10:05:21;4.68;;;0.88;;
74777;SDS011;63298;53.164;8.610;2023-12-20T10:08:05;3.72;;;0.80;;
74777;SDS011;63298;53.164;8.610;2023-12-20T10:10:30;2.55;;;0.63;;
74777;SDS011;63298;53.164;8.610;2023-12-20T10:13:09;1.60;;;0.52;;
74777;SDS011;63298;53.164;8.610;2023-12-20T10:18:15;7.00;;;0.70;;
74777;SDS011;63298;53.164;8.610;2023-12-20T10:20:43;3.15;;;0.40;;
74777;SDS011;63298;53.164;8.610;2023-12-20T10:23:12;4.03;;;0.70;;
74777;SDS011;63298;53.164;8.610;2023-12-20T10:26:01;2.85;;;0.50;;
74777;SDS011;63298;53.164;8.610;2023-12-20T10:28:33;6.60;;;0.93;;
74777;SDS011;63298;53.164;8.610;2023-12-20T10:31:25;5.55;;;0.70;;
74777;SDS011;63298;53.164;8.610;2023-12-20T10:34:00;3.83;;;0.63;;
74777;SDS011;63298;53.164;8.610;2023-12-20T10:36:35;6.03;;;1.42;;
74777;SDS011;63298;53.164;8.610;2023-12-20T10:39:11;8.80;;;3.33;;
74777;SDS011;63298;53.164;8.610;2023-12-20T10:41:59;5.70;;;1.75;;
74777;SDS011;63298;53.164;8.610;2023-12-20T10:44:33;12.05;;;3.28;;
74777;SDS011;63298;53.164;8.610;2023-12-20T10:47:01;8.52;;;2.55;;
74777;SDS011;63298;53.164;8.610;2023-12-20T10:49:53;2.30;;;0.85;;
74777;SDS011;63298;53.164;8.610;2023-12-20T10:52:35;3.70;;;1.23;;
74777;SDS011;63298;53.164;8.610;2023-12-20T10:55:10;7.88;;;1.10;;
74777;SDS011;63298;53.164;8.610;2023-12-20T10:57:36;2.60;;;1.10;;
74777;SDS011;63298;53.164;8.610;2023-12-20T11:00:02;3.90;;;0.98;;
74777;SDS011;63298;53.164;8.610;2023-12-20T11:02:28;4.43;;;0.93;;
74777;SDS011;63298;53.164;8.610;2023-12-20T11:14:35;9.63;;;1.55;;
74777;SDS011;63298;53.164;8.610;2023-12-20T11:17:18;5.47;;;1.10;;
74777;SDS011;63298;53.164;8.610;2023-12-20T11:22:29;7.00;;;1.13;;
74777;SDS011;63298;53.164;8.610;2023-12-20T11:25:25;6.28;;;1.70;;
74777;SDS011;63298;53.164;8.610;2023-12-20T11:28:15;6.38;;;0.98;;
74777;SDS011;63298;53.164;8.610;2023-12-20T11:30:54;8.70;;;1.73;;
74777;SDS011;63298;53.164;8.610;2023-12-20T11:33:24;7.68;;;0.93;;
74777;SDS011;63298;53.164;8.610;2023-12-20T11:36:28;8.10;;;1.42;;
74777;SDS011;63298;53.164;8.610;2023-12-20T11:41:33;5.10;;;0.80;;
74777;SDS011;63298;53.164;8.610;2023-12-20T11:44:39;5.65;;;0.93;;
74777;SDS011;63298;53.164;8.610;2023-12-20T11:47:13;7.00;;;1.02;;
74777;SDS011;63298;53.164;8.610;2023-12-20T11:49:46;4.95;;;1.00;;
74777;SDS011;63298;53.164;8.610;2023-12-20T11:52:33;8.30;;;1.15;;
74777;SDS011;63298;53.164;8.610;2023-12-20T11:57:56;10.55;;;1.55;;
74777;SDS011;63298;53.164;8.610;2023-12-20T12:00:25;6.70;;;1.20;;
74777;SDS011;63298;53.164;8.610;2023-12-20T12:02:57;10.48;;;1.33;;
74777;SDS011;63298;53.164;8.610;2023-12-20T12:05:25;10.43;;;1.27;;
74777;SDS011;63298;53.164;8.610;2023-12-20T12:07:50;11.85;;;1.45;;
74777;SDS011;63298;53.164;8.610;2023-12-20T12:10:16;7.88;;;1.13;;
74777;SDS011;63298;53.164;8.610;2023-12-20T12:12:44;5.25;;;1.75;;
74777;SDS011;63298;53.164;8.610;2023-12-20T12:15:09;9.05;;;1.60;;
74777;SDS011;63298;53.164;8.610;2023-12-20T12:17:37;6.68;;;1.17;;
74777;SDS011;63298;53.164;8.610;2023-12-20T12:20:03;8.65;;;1.50;;
74777;SDS011;63298;53.164;8.610;2023-12-20T12:22:29;9.68;;;2.47;;
74777;SDS011;63298;53.164;8.610;2023-12-20T12:24:54;7.53;;;1.25;;
74777;SDS011;63298;53.164;8.610;2023-12-20T12:27:24;10.00;;;1.33;;
74777;SDS011;63298;53.164;8.610;2023-12-20T12:30:05;7.95;;;1.48;;
74777;SDS011;63298;53.164;8.610;2023-12-20T12:32:33;10.70;;;1.55;;
74777;SDS011;63298;53.164;8.610;2023-12-20T12:34:58;10.38;;;1.92;;
74777;SDS011;63298;53.164;8.610;2023-12-20T12:37:24;7.78;;;1.52;;
74777;SDS011;63298;53.164;8.610;2023-12-20T12:39:55;5.40;;;1.17;;
74777;SDS011;63298;53.164;8.610;2023-12-20T12:42:21;5.28;;;1.30;;
74777;SDS011;63298;53.164;8.610;2023-12-20T12:44:47;10.25;;;1.38;;
74777;SDS011;63298;53.164;8.610;2023-12-20T12:47:12;7.50;;;1.38;;
74777;SDS011;63298;53.164;8.610;2023-12-20T12:49:41;7.18;;;1.17;;
74777;SDS011;63298;53.164;8.610;2023-12-20T12:52:09;6.63;;;1.42;;
74777;SDS011;63298;53.164;8.610;2023-12-20T12:54:34;13.18;;;2.00;;
74777;SDS011;63298;53.164;8.610;2023-12-20T12:57:02;9.15;;;1.77;;
74777;SDS011;63298;53.164;8.610;2023-12-20T12:59:31;15.02;;;1.92;;
74777;SDS011;63298;53.164;8.610;2023-12-20T13:01:56;10.55;;;2.60;;
74777;SDS011;63298;53.164;8.610;2023-12-20T13:04:22;10.63;;;1.60;;
74777;SDS011;63298;53.164;8.610;2023-12-20T13:06:47;13.65;;;2.33;;
74777;SDS011;63298;53.164;8.610;2023-12-20T13:09:12;10.80;;;1.73;;
74777;SDS011;63298;53.164;8.610;2023-12-20T13:11:38;13.63;;;1.90;;
74777;SDS011;63298;53.164;8.610;2023-12-20T13:14:08;14.18;;;2.20;;
74777;SDS011;63298;53.164;8.610;2023-12-20T13:16:37;14.75;;;1.85;;
74777;SDS011;63298;53.164;8.610;2023-12-20T13:19:05;11.68;;;1.92;;
74777;SDS011;63298;53.164;8.610;2023-12-20T13:21:36;13.40;;;2.00;;
74777;SDS011;63298;53.164;8.610;2023-12-20T13:24:04;9.13;;;1.55;;
74777;SDS011;63298;53.164;8.610;2023-12-20T13:26:32;7.85;;;1.58;;
74777;SDS011;63298;53.164;8.610;2023-12-20T13:29:05;18.73;;;2.40;;
74777;SDS011;63298;53.164;8.610;2023-12-20T13:31:30;10.43;;;2.00;;
74777;SDS011;63298;53.164;8.610;2023-12-20T13:33:59;7.35;;;1.40;;
74777;SDS011;63298;53.164;8.610;2023-12-20T13:36:27;9.82;;;2.33;;
74777;SDS011;63298;53.164;8.610;2023-12-20T13:38:52;7.85;;;1.70;;
74777;SDS011;63298;53.164;8.610;2023-12-20T13:41:21;13.93;;;3.05;;
74777;SDS011;63298;53.164;8.610;2023-12-20T13:43:46;12.90;;;2.20;;
74777;SDS011;63298;53.164;8.610;2023-12-20T13:46:12;12.20;;;1.90;;
74777;SDS011;63298;53.164;8.610;2023-12-20T13:48:43;7.63;;;1.60;;
74777;SDS011;63298;53.164;8.610;2023-12-20T13:51:08;9.68;;;1.45;;
74777;SDS011;63298;53.164;8.610;2023-12-20T13:53:36;10.68;;;1.63;;
74777;SDS011;63298;53.164;8.610;2023-12-20T13:56:05;10.25;;;1.20;;
74777;SDS011;63298;53.164;8.610;2023-12-20T13:58:30;13.30;;;1.83;;
74777;SDS011;63298;53.164;8.610;2023-12-20T14:00:55;7.22;;;1.30;;
74777;SDS011;63298;53.164;8.610;2023-12-20T14:03:23;9.20;;;1.25;;
74777;SDS011;63298;53.164;8.610;2023-12-20T14:05:48;6.93;;;1.38;;
74777;SDS011;63298;53.164;8.610;2023-12-20T14:08:14;12.18;;;1.25;;
74777;SDS011;63298;53.164;8.610;2023-12-20T14:10:45;8.10;;;1.10;;
74777;SDS011;63298;53.164;8.610;2023-12-20T14:13:10;11.15;;;1.58;;
74777;SDS011;63298;53.164;8.610;2023-12-20T14:15:39;15.73;;;2.58;;
74777;SDS011;63298;53.164;8.610;2023-12-20T14:18:04;10.13;;;1.83;;
74777;SDS011;63298;53.164;8.610;2023-12-20T14:20:33;13.57;;;1.60;;
74777;SDS011;63298;53.164;8.610;2023-12-20T14:25:33;12.02;;;2.22;;
74777;SDS011;63298;53.164;8.610;2023-12-20T14:27:58;11.15;;;1.10;;
74777;SDS011;63298;53.164;8.610;2023-12-20T14:30:24;9.85;;;1.20;;
74777;SDS011;63298;53.164;8.610;2023-12-20T14:32:49;9.55;;;1.83;;
74777;SDS011;63298;53.164;8.610;2023-12-20T14:35:14;9.27;;;1.33;;
74777;SDS011;63298;53.164;8.610;2023-12-20T14:37:40;10.32;;;1.42;;
74777;SDS011;63298;53.164;8.610;2023-12-20T14:40:09;17.13;;;1.40;;
74777;SDS011;63298;53.164;8.610;2023-12-20T14:42:35;11.18;;;1.83;;
74777;SDS011;63298;53.164;8.610;2023-12-20T14:45:00;12.93;;;1.50;;
74777;SDS011;63298;53.164;8.610;2023-12-20T14:47:35;13.80;;;1.50;;
74777;SDS011;63298;53.164;8.610;2023-12-20T14:50:04;11.48;;;1.83;;
74777;SDS011;63298;53.164;8.610;2023-12-20T14:52:30;10.25;;;1.70;;
74777;SDS011;63298;53.164;8.610;2023-12-20T14:54:56;7.05;;;1.25;;
74777;SDS011;63298;53.164;8.610;2023-12-20T14:57:23;9.60;;;2.03;;
74777;SDS011;63298;53.164;8.610;2023-12-20T14:59:48;11.95;;;1.33;;
74777;SDS011;63298;53.164;8.610;2023-12-20T15:02:14;12.80;;;1.45;;
74777;SDS011;63298;53.164;8.610;2023-12-20T15:04:39;7.80;;;1.30;;
74777;SDS011;63298;53.164;8.610;2023-12-20T15:07:07;14.52;;;2.22;;
74777;SDS011;63298;53.164;8.610;2023-12-20T15:09:33;11.30;;;2.33;;
74777;SDS011;63298;53.164;8.610;2023-12-20T15:12:01;10.98;;;3.10;;
74777;SDS011;63298;53.164;8.610;2023-12-20T15:14:26;8.70;;;2.65;;
74777;SDS011;63298;53.164;8.610;2023-12-20T15:16:54;20.60;;;3.33;;
74777;SDS011;63298;53.164;8.610;2023-12-20T15:19:20;18.85;;;2.80;;
74777;SDS011;63298;53.164;8.610;2023-12-20T15:21:45;18.10;;;2.22;;
74777;SDS011;63298;53.164;8.610;2023-12-20T15:24:11;12.00;;;2.28;;
74777;SDS011;63298;53.164;8.610;2023-12-20T15:26:38;12.98;;;1.45;;
74777;SDS011;63298;53.164;8.610;2023-12-20T15:29:03;10.95;;;1.95;;
74777;SDS011;63298;53.164;8.610;2023-12-20T15:31:28;9.05;;;1.45;;
74777;SDS011;63298;53.164;8.610;2023-12-20T15:33:54;8.00;;;1.83;;
74777;SDS011;63298;53.164;8.610;2023-12-20T15:36:20;12.65;;;1.42;;
74777;SDS011;63298;53.164;8.610;2023-12-20T15:38:45;13.70;;;1.90;;
74777;SDS011;63298;53.164;8.610;2023-12-20T15:41:17;4.43;;;1.17;;
74777;SDS011;63298;53.164;8.610;2023-12-20T15:43:45;9.75;;;2.15;;
74777;SDS011;63298;53.164;8.610;2023-12-20T15:46:11;6.68;;;1.30;;
74777;SDS011;63298;53.164;8.610;2023-12-20T15:48:36;9.95;;;1.23;;
74777;SDS011;63298;53.164;8.610;2023-12-20T15:51:05;12.43;;;1.52;;
74777;SDS011;63298;53.164;8.610;2023-12-20T15:53:31;4.55;;;1.02;;
74777;SDS011;63298;53.164;8.610;2023-12-20T15:55:56;6.55;;;1.35;;
74777;SDS011;63298;53.164;8.610;2023-12-20T15:58:22;9.55;;;1.73;;
74777;SDS011;63298;53.164;8.610;2023-12-20T16:06:00;5.80;;;1.55;;
74777;SDS011;63298;53.164;8.610;2023-12-20T16:08:29;11.02;;;2.28;;
74777;SDS011;63298;53.164;8.610;2023-12-20T16:14:08;5.80;;;1.63;;
74777;SDS011;63298;53.164;8.610;2023-12-20T16:16:52;3.47;;;1.38;;
74777;SDS011;63298;53.164;8.610;2023-12-20T16:22:47;13.68;;;2.30;;
74777;SDS011;63298;53.164;8.610;2023-12-20T16:25:18;18.20;;;3.78;;
74777;SDS011;63298;53.164;8.610;2023-12-20T16:28:15;19.02;;;3.67;;
74777;SDS011;63298;53.164;8.610;2023-12-20T16:34:33;7.07;;;1.80;;
74777;SDS011;63298;53.164;8.610;2023-12-20T16:37:29;6.90;;;1.15;;
74777;SDS011;63298;53.164;8.610;2023-12-20T16:40:17;3.05;;;0.75;;
74777;SDS011;63298;53.164;8.610;2023-12-20T16:46:12;6.10;;;1.35;;
74777;SDS011;63298;53.164;8.610;2023-12-20T16:51:22;7.03;;;0.82;;
74777;SDS011;63298;53.164;8.610;2023-12-20T16:53:51;3.55;;;1.20;;
74777;SDS011;63298;53.164;8.610;2023-12-20T16:56:16;5.78;;;1.65;;
74777;SDS011;63298;53.164;8.610;2023-12-20T16:58:41;5.50;;;1.83;;
74777;SDS011;63298;53.164;8.610;2023-12-20T17:01:07;6.35;;;1.65;;
74777;SDS011;63298;53.164;8.610;2023-12-20T17:03:37;3.10;;;1.33;;
74777;SDS011;63298;53.164;8.610;2023-12-20T17:06:28;4.80;;;1.30;;
74777;SDS011;63298;53.164;8.610;2023-12-20T17:08:57;5.20;;;1.20;;
74777;SDS011;63298;53.164;8.610;2023-12-20T17:11:28;8.07;;;1.58;;
74777;SDS011;63298;53.164;8.610;2023-12-20T17:14:13;6.28;;;1.20;;
74777;SDS011;63298;53.164;8.610;2023-12-20T17:17:10;5.78;;;2.03;;
74777;SDS011;63298;53.164;8.610;2023-12-20T17:19:39;3.70;;;1.33;;
74777;SDS011;63298;53.164;8.610;2023-12-20T17:22:04;6.50;;;1.50;;
74777;SDS011;63298;53.164;8.610;2023-12-20T17:24:33;5.57;;;1.40;;
74777;SDS011;63298;53.164;8.610;2023-12-20T17:26:58;4.72;;;1.23;;
74777;SDS011;63298;53.164;8.610;2023-12-20T17:29:29;6.85;;;1.10;;
74777;SDS011;63298;53.164;8.610;2023-12-20T17:31:55;4.60;;;1.27;;
74777;SDS011;63298;53.164;8.610;2023-12-20T17:34:20;6.70;;;1.27;;
74777;SDS011;63298;53.164;8.610;2023-12-20T17:36:45;4.43;;;0.98;;
74777;SDS011;63298;53.164;8.610;2023-12-20T17:39:17;10.65;;;1.50;;
74777;SDS011;63298;53.164;8.610;2023-12-20T17:41:42;8.20;;;1.42;;
74777;SDS011;63298;53.164;8.610;2023-12-20T17:44:10;8.30;;;1.88;;
74777;SDS011;63298;53.164;8.610;2023-12-20T17:46:39;6.05;;;1.70;;
74777;SDS011;63298;53.164;8.610;2023-12-20T17:49:04;4.63;;;1.38;;
74777;SDS011;63298;53.164;8.610;2023-12-20T17:51:30;4.65;;;1.23;;
74777;SDS011;63298;53.164;8.610;2023-12-20T17:53:57;6.63;;;1.23;;
74777;SDS011;63298;53.164;8.610;2023-12-20T17:56:23;5.53;;;1.35;;
74777;SDS011;63298;53.164;8.610;2023-12-20T17:58:48;3.30;;;0.90;;
74777;SDS011;63298;53.164;8.610;2023-12-20T18:01:14;3.83;;;1.15;;
74777;SDS011;63298;53.164;8.610;2023-12-20T18:03:39;6.05;;;1.10;;
74777;SDS011;63298;53.164;8.610;2023-12-20T18:06:04;5.07;;;1.65;;
74777;SDS011;63298;53.164;8.610;2023-12-20T18:08:33;2.40;;;1.20;;
74777;SDS011;63298;53.164;8.610;2023-12-20T18:35:47;4.55;;;1.15;;
74777;SDS011;63298;53.164;8.610;2023-12-20T18:38:47;7.03;;;1.10;;
74777;SDS011;63298;53.164;8.610;2023-12-20T18:41:13;6.30;;;1.17;;
74777;SDS011;63298;53.164;8.610;2023-12-20T18:43:38;3.95;;;1.02;;
74777;SDS011;63298;53.164;8.610;2023-12-20T18:46:03;5.47;;;1.33;;
74777;SDS011;63298;53.164;8.610;2023-12-20T18:48:30;5.95;;;1.10;;
74777;SDS011;63298;53.164;8.610;2023-12-20T18:51:01;3.50;;;1.25;;
74777;SDS011;63298;53.164;8.610;2023-12-20T18:53:51;4.03;;;1.17;;
74777;SDS011;63298;53.164;8.610;2023-12-20T18:56:23;3.92;;;1.00;;
74777;SDS011;63298;53.164;8.610;2023-12-20T18:58:48;7.68;;;1.75;;
74777;SDS011;63298;53.164;8.610;2023-12-20T19:01:14;8.57;;;1.70;;
74777;SDS011;63298;53.164;8.610;2023-12-20T19:03:52;5.38;;;1.50;;
74777;SDS011;63298;53.164;8.610;2023-12-20T19:06:24;6.15;;;1.33;;
74777;SDS011;63298;53.164;8.610;2023-12-20T19:08:53;8.27;;;1.70;;
74777;SDS011;63298;53.164;8.610;2023-12-20T19:11:34;4.55;;;1.35;;
74777;SDS011;63298;53.164;8.610;2023-12-20T19:14:05;8.93;;;2.00;;
74777;SDS011;63298;53.164;8.610;2023-12-20T19:16:33;6.97;;;2.15;;
74777;SDS011;63298;53.164;8.610;2023-12-20T19:19:06;10.43;;;2.15;;